createdAt,value
2018-05-29T00:00:50.760Z,23.00
2018-05-29T00:03:18.225Z,23.00
2018-05-29T00:05:45.673Z,22.90
2018-05-29T00:08:13.125Z,22.90
2018-05-29T00:10:40.569Z,22.80
2018-05-29T00:13:08.023Z,22.90
2018-05-29T00:15:35.474Z,22.80
2018-05-29T00:18:02.913Z,22.80
2018-05-29T00:20:30.352Z,22.90
2018-05-29T00:22:58.567Z,22.90
2018-05-29T00:25:26.024Z,22.90
2018-05-29T00:27:53.460Z,22.90
2018-05-29T00:30:20.911Z,22.90
2018-05-29T00:32:49.112Z,22.80
2018-05-29T00:35:16.552Z,22.80
2018-05-29T00:37:43.991Z,22.80
2018-05-29T00:40:12.241Z,22.70
2018-05-29T00:42:39.693Z,22.70
2018-05-29T00:45:08.653Z,22.70
2018-05-29T00:47:36.097Z,22.70
2018-05-29T00:50:03.535Z,22.80
2018-05-29T00:52:30.972Z,22.70
2018-05-29T00:55:11.028Z,22.60
2018-05-29T00:57:39.266Z,22.70
2018-05-29T01:00:06.721Z,22.60
2018-05-29T01:02:34.184Z,22.60
2018-05-29T01:05:01.641Z,22.60
2018-05-29T01:07:29.087Z,22.60
2018-05-29T01:09:56.564Z,22.60
2018-05-29T01:12:24.028Z,22.60
2018-05-29T01:14:51.537Z,22.60
2018-05-29T01:17:18.972Z,22.60
2018-05-29T01:19:46.427Z,22.50
2018-05-29T01:22:14.661Z,22.50
2018-05-29T01:24:42.860Z,22.50
2018-05-29T01:27:11.076Z,22.50
2018-05-29T01:29:38.525Z,22.40
2018-05-29T01:32:05.978Z,22.40
2018-05-29T01:34:33.424Z,22.40
2018-05-29T01:37:01.620Z,22.40
2018-05-29T01:39:29.108Z,22.40
2018-05-29T01:41:56.561Z,22.40
2018-05-29T01:44:24.002Z,22.30
2018-05-29T01:46:51.456Z,22.30
2018-05-29T01:49:18.901Z,22.30
2018-05-29T01:51:46.366Z,22.30
2018-05-29T01:54:13.809Z,22.20
2018-05-29T01:56:41.261Z,22.20
2018-05-29T01:59:08.722Z,22.20
2018-05-29T02:01:36.209Z,22.10
2018-05-29T02:04:03.653Z,22.10
2018-05-29T02:06:31.100Z,22.00
2018-05-29T02:08:58.532Z,22.10
2018-05-29T02:11:26.089Z,22.10
2018-05-29T02:13:53.523Z,22.00
2018-05-29T02:16:21.730Z,22.00
2018-05-29T02:18:49.168Z,22.00
2018-05-29T02:21:16.620Z,22.00
2018-05-29T02:23:44.834Z,21.90
2018-05-29T02:26:12.294Z,21.80
2018-05-29T02:28:39.745Z,21.90
2018-05-29T02:31:07.211Z,21.90
2018-05-29T02:33:34.667Z,21.90
2018-05-29T02:36:02.116Z,21.90
2018-05-29T02:38:29.558Z,21.70
2018-05-29T02:40:57.016Z,21.70
2018-05-29T02:43:24.465Z,21.70
2018-05-29T02:45:51.913Z,21.70
2018-05-29T02:48:19.364Z,21.70
2018-05-29T02:50:46.792Z,21.80
2018-05-29T02:53:14.237Z,21.90
2018-05-29T02:55:41.677Z,21.80
2018-05-29T02:58:09.133Z,21.80
2018-05-29T03:00:36.576Z,21.70
2018-05-29T03:03:04.060Z,21.60
2018-05-29T03:05:31.585Z,21.60
2018-05-29T03:07:59.050Z,21.50
2018-05-29T03:10:26.460Z,21.50
2018-05-29T03:12:54.777Z,21.40
2018-05-29T03:15:22.211Z,21.30
2018-05-29T03:17:49.670Z,21.40
2018-05-29T03:20:17.176Z,21.40
2018-05-29T03:22:44.617Z,21.40
2018-05-29T03:25:12.052Z,21.30
2018-05-29T03:27:39.503Z,21.30
2018-05-29T03:30:06.966Z,21.30
2018-05-29T03:32:34.424Z,21.40
2018-05-29T03:35:01.846Z,21.40
2018-05-29T03:37:30.072Z,21.40
2018-05-29T03:39:57.555Z,21.30
2018-05-29T03:42:24.997Z,21.40
2018-05-29T03:44:52.456Z,21.30
2018-05-29T03:47:19.902Z,21.30
2018-05-29T03:49:47.356Z,21.30
2018-05-29T03:52:14.805Z,21.30
2018-05-29T03:54:42.264Z,21.40
2018-05-29T03:57:09.742Z,21.30
2018-05-29T03:59:37.210Z,21.30
2018-05-29T04:02:04.723Z,21.30
2018-05-29T04:04:32.153Z,21.40
2018-05-29T04:06:59.613Z,21.40
2018-05-29T04:09:27.115Z,21.50
2018-05-29T04:11:55.266Z,21.60
2018-05-29T04:14:22.707Z,21.50
2018-05-29T04:16:50.190Z,21.70
2018-05-29T04:19:17.738Z,21.80
2018-05-29T04:21:45.177Z,21.80
2018-05-29T04:24:12.648Z,21.90
2018-05-29T04:26:40.072Z,21.90
2018-05-29T04:29:08.304Z,22.00
2018-05-29T04:31:35.756Z,22.00
2018-05-29T04:34:03.304Z,22.10
2018-05-29T04:36:30.750Z,22.20
2018-05-29T04:38:58.231Z,22.20
2018-05-29T04:41:25.684Z,22.20
2018-05-29T04:43:53.157Z,22.30
2018-05-29T04:46:20.715Z,22.30
2018-05-29T04:48:48.273Z,22.20
2018-05-29T04:51:15.723Z,22.30
2018-05-29T04:53:43.272Z,22.20
2018-05-29T04:56:10.728Z,22.20
2018-05-29T04:58:38.230Z,22.10
2018-05-29T05:01:06.433Z,22.10
2018-05-29T05:03:33.898Z,22.10
2018-05-29T05:06:01.347Z,22.20
2018-05-29T05:08:28.832Z,22.30
2018-05-29T05:10:56.292Z,22.40
2018-05-29T05:13:23.729Z,22.40
2018-05-29T05:15:51.181Z,22.50
2018-05-29T05:18:18.628Z,22.40
2018-05-29T05:20:46.074Z,22.60
2018-05-29T05:23:13.552Z,22.60
2018-05-29T05:25:41.002Z,22.70
2018-05-29T05:28:08.463Z,22.70
2018-05-29T05:30:35.902Z,22.80
2018-05-29T05:33:03.359Z,22.90
2018-05-29T05:35:31.573Z,22.90
2018-05-29T05:37:59.008Z,22.90
2018-05-29T05:40:26.476Z,23.00
2018-05-29T05:42:53.920Z,23.10
2018-05-29T05:45:21.361Z,23.10
2018-05-29T05:47:48.845Z,23.10
2018-05-29T05:50:16.296Z,23.20
2018-05-29T05:52:43.900Z,23.30
2018-05-29T05:55:11.306Z,23.30
2018-05-29T05:57:38.791Z,23.30
2018-05-29T06:00:06.413Z,23.40
2018-05-29T06:02:33.891Z,23.40
2018-05-29T06:05:01.407Z,23.50
2018-05-29T06:07:29.697Z,23.70
2018-05-29T06:09:58.013Z,23.70
2018-05-29T06:12:25.553Z,23.60
2018-05-29T06:14:53.026Z,23.80
2018-05-29T06:17:20.490Z,23.90
2018-05-29T06:19:47.935Z,23.90
2018-05-29T06:22:15.479Z,24.00
2018-05-29T06:24:42.940Z,24.10
2018-05-29T06:27:10.382Z,24.20
2018-05-29T06:29:37.894Z,24.10
2018-05-29T06:32:05.430Z,24.10
2018-05-29T06:34:32.881Z,24.10
2018-05-29T06:37:01.065Z,24.20
2018-05-29T06:39:28.520Z,24.40
2018-05-29T06:41:55.981Z,24.40
2018-05-29T06:44:23.436Z,24.40
2018-05-29T06:46:50.924Z,24.40
2018-05-29T06:49:18.362Z,24.40
2018-05-29T06:51:45.820Z,24.40
2018-05-29T06:54:14.210Z,24.50
2018-05-29T06:56:42.482Z,24.70
2018-05-29T06:59:09.990Z,24.60
2018-05-29T07:01:37.470Z,24.70
2018-05-29T07:04:04.944Z,24.80
2018-05-29T07:06:32.446Z,24.90
2018-05-29T07:08:59.908Z,24.90
2018-05-29T07:11:27.341Z,25.00
2018-05-29T07:13:55.552Z,25.20
2018-05-29T07:16:23.057Z,25.10
2018-05-29T07:18:50.585Z,25.10
2018-05-29T07:21:18.185Z,25.20
2018-05-29T07:23:45.683Z,25.20
2018-05-29T07:26:13.189Z,25.20
2018-05-29T07:28:40.657Z,25.40
2018-05-29T07:31:08.852Z,25.70
2018-05-29T07:33:36.297Z,25.60
2018-05-29T07:36:03.855Z,25.80
2018-05-29T07:38:32.065Z,25.90
2018-05-29T07:40:59.553Z,25.90
2018-05-29T07:43:27.013Z,27.00
2018-05-29T07:45:54.556Z,26.20
2018-05-29T07:48:22.028Z,26.30
2018-05-29T07:50:49.519Z,26.40
2018-05-29T07:53:16.997Z,26.40
2018-05-29T07:55:44.561Z,26.40
2018-05-29T07:58:12.116Z,26.30
2018-05-29T08:00:39.552Z,26.30
2018-05-29T08:03:07.066Z,26.30
2018-05-29T08:05:34.624Z,26.40
2018-05-29T08:08:03.569Z,26.50
2018-05-29T08:10:31.046Z,26.50
2018-05-29T08:12:58.470Z,26.60
2018-05-29T08:15:25.913Z,26.60
2018-05-29T08:17:54.154Z,26.60
2018-05-29T08:20:21.630Z,26.60
2018-05-29T08:22:49.064Z,26.70
2018-05-29T08:25:16.811Z,26.60
2018-05-29T08:27:44.253Z,26.70
2018-05-29T08:30:11.717Z,26.80
2018-05-29T08:32:39.988Z,26.90
2018-05-29T08:35:07.437Z,27.00
2018-05-29T08:37:34.888Z,27.00
2018-05-29T08:40:02.346Z,27.00
2018-05-29T08:42:29.798Z,27.00
2018-05-29T08:44:57.283Z,27.00
2018-05-29T08:47:24.716Z,27.00
2018-05-29T08:49:52.160Z,27.00
2018-05-29T08:52:19.620Z,27.10
2018-05-29T08:54:47.076Z,27.20
2018-05-29T08:57:14.541Z,27.20
2018-05-29T08:59:42.020Z,27.30
2018-05-29T09:02:09.453Z,27.30
2018-05-29T09:04:37.020Z,27.40
2018-05-29T09:07:04.445Z,27.40
2018-05-29T09:09:32.656Z,27.60
2018-05-29T09:12:00.083Z,27.50
2018-05-29T09:14:27.668Z,27.60
2018-05-29T09:16:55.225Z,27.60
2018-05-29T09:19:22.679Z,27.60
2018-05-29T09:21:50.141Z,27.70
2018-05-29T09:24:17.697Z,27.80
2018-05-29T09:26:45.136Z,27.90
2018-05-29T09:29:12.609Z,27.90
2018-05-29T09:31:40.168Z,28.00
2018-05-29T09:34:07.606Z,28.20
2018-05-29T09:36:35.073Z,28.20
2018-05-29T09:39:02.528Z,28.80
2018-05-29T09:41:30.064Z,28.40
2018-05-29T09:43:57.447Z,28.50
2018-05-29T09:46:24.904Z,28.50
2018-05-29T09:48:52.364Z,28.60
2018-05-29T09:51:19.931Z,28.70
2018-05-29T09:53:47.413Z,28.80
2018-05-29T09:56:14.877Z,28.90
2018-05-29T09:58:42.313Z,28.90
2018-05-29T10:01:09.818Z,29.00
2018-05-29T10:03:37.620Z,29.10
2018-05-29T10:06:05.069Z,29.10
2018-05-29T10:08:32.514Z,29.10
2018-05-29T10:10:59.971Z,29.00
2018-05-29T10:13:27.420Z,29.00
2018-05-29T10:15:55.661Z,29.10
2018-05-29T10:18:23.133Z,29.00
2018-05-29T10:20:50.681Z,29.10
2018-05-29T10:23:18.159Z,29.30
2018-05-29T10:25:45.577Z,29.40
2018-05-29T10:28:13.106Z,29.50
2018-05-29T10:30:40.556Z,29.70
2018-05-29T10:33:07.980Z,29.80
2018-05-29T10:35:36.189Z,29.90
2018-05-29T10:38:03.641Z,29.90
2018-05-29T10:40:31.225Z,29.80
2018-05-29T10:42:58.677Z,29.90
2018-05-29T10:45:26.117Z,30.00
2018-05-29T10:47:53.682Z,30.10
2018-05-29T10:50:21.113Z,30.20
2018-05-29T10:52:49.320Z,30.40
2018-05-29T10:55:16.771Z,30.30
2018-05-29T10:57:44.209Z,30.40
2018-05-29T11:00:11.647Z,30.50
2018-05-29T11:02:39.874Z,30.60
2018-05-29T11:05:07.825Z,30.50
2018-05-29T11:07:35.251Z,30.40
2018-05-29T11:10:02.682Z,30.40
2018-05-29T11:12:30.131Z,30.40
2018-05-29T11:14:57.645Z,30.50
2018-05-29T11:17:25.072Z,30.60
2018-05-29T11:19:53.276Z,30.80
2018-05-29T11:22:20.732Z,30.70
2018-05-29T11:24:48.186Z,30.70
2018-05-29T11:27:15.617Z,30.80
2018-05-29T11:29:43.857Z,30.80
2018-05-29T11:32:11.308Z,30.80
2018-05-29T11:34:38.772Z,30.90
2018-05-29T11:37:06.761Z,31.00
2018-05-29T11:39:34.961Z,30.90
2018-05-29T11:42:02.478Z,30.80
2018-05-29T11:44:30.701Z,30.90
2018-05-29T11:47:04.137Z,30.90
2018-05-29T11:49:31.701Z,30.90
2018-05-29T11:51:59.235Z,31.00
2018-05-29T11:54:26.713Z,30.90
2018-05-29T11:56:54.170Z,31.00
2018-05-29T11:59:21.601Z,31.10
2018-05-29T12:01:49.099Z,31.10
2018-05-29T12:04:16.544Z,31.10
2018-05-29T12:06:44.103Z,31.00
2018-05-29T12:09:11.576Z,31.10
2018-05-29T12:11:39.108Z,31.00
2018-05-29T12:14:06.540Z,31.10
2018-05-29T12:16:33.985Z,31.20
2018-05-29T12:19:01.421Z,31.60
2018-05-29T12:21:28.869Z,31.40
2018-05-29T12:23:56.328Z,31.50
2018-05-29T12:26:24.536Z,31.40
2018-05-29T12:28:51.973Z,31.40
2018-05-29T12:31:19.468Z,31.50
2018-05-29T12:33:46.921Z,31.50
2018-05-29T12:36:14.392Z,31.50
2018-05-29T12:38:41.918Z,31.50
2018-05-29T12:41:09.366Z,31.40
2018-05-29T12:43:36.852Z,31.40
2018-05-29T12:46:04.344Z,31.50
2018-05-29T12:48:31.909Z,31.50
2018-05-29T12:51:00.122Z,31.80
2018-05-29T12:53:27.591Z,31.70
2018-05-29T12:55:55.075Z,31.80
2018-05-29T12:58:22.541Z,31.80
2018-05-29T13:00:50.153Z,31.70
2018-05-29T13:03:17.636Z,31.60
2018-05-29T13:05:45.094Z,31.60
2018-05-29T13:08:12.565Z,31.60
2018-05-29T13:10:40.861Z,31.70
2018-05-29T13:13:08.365Z,31.60
2018-05-29T13:15:35.824Z,31.50
2018-05-29T13:18:03.396Z,31.50
2018-05-29T13:20:30.827Z,31.50
2018-05-29T13:22:58.265Z,31.40
2018-05-29T13:25:25.726Z,31.50
2018-05-29T13:27:53.931Z,31.80
2018-05-29T13:30:21.453Z,31.80
2018-05-29T13:32:49.672Z,31.80
2018-05-29T13:35:17.110Z,31.80
2018-05-29T13:37:44.591Z,31.80
2018-05-29T13:40:12.035Z,31.80
2018-05-29T13:42:39.507Z,31.80
2018-05-29T13:45:06.969Z,31.90
2018-05-29T13:47:34.408Z,31.90
2018-05-29T13:50:01.949Z,32.00
2018-05-29T13:52:29.392Z,32.00
2018-05-29T13:54:56.864Z,32.00
2018-05-29T13:57:24.320Z,32.00
2018-05-29T13:59:51.987Z,32.00
2018-05-29T14:02:19.506Z,32.00
2018-05-29T14:04:47.753Z,32.40
2018-05-29T14:07:15.203Z,32.30
2018-05-29T14:09:42.644Z,32.30
2018-05-29T14:12:10.099Z,32.40
2018-05-29T14:14:37.550Z,32.30
2018-05-29T14:17:04.995Z,32.40
2018-05-29T14:19:32.455Z,32.40
2018-05-29T14:21:59.912Z,32.30
2018-05-29T14:24:27.388Z,32.30
2018-05-29T14:26:54.838Z,32.30
2018-05-29T14:29:22.297Z,32.50
2018-05-29T14:31:49.729Z,32.50
2018-05-29T14:34:17.210Z,32.40
2018-05-29T14:36:45.043Z,32.40
2018-05-29T14:39:12.494Z,32.60
2018-05-29T14:41:39.939Z,32.60
2018-05-29T14:44:07.469Z,32.70
2018-05-29T14:46:35.588Z,32.90
2018-05-29T14:49:03.084Z,32.90
2018-05-29T14:51:30.610Z,33.10
2018-05-29T14:53:58.040Z,33.20
2018-05-29T14:56:26.265Z,33.10
2018-05-29T14:58:53.699Z,33.10
2018-05-29T15:01:21.200Z,33.30
2018-05-29T15:03:48.748Z,33.30
2018-05-29T15:06:16.204Z,33.10
2018-05-29T15:08:43.730Z,33.30
2018-05-29T15:11:11.223Z,33.50
2018-05-29T15:13:38.652Z,33.70
2018-05-29T15:16:06.144Z,34.40
2018-05-29T15:21:08.296Z,37.30
2018-05-29T15:23:35.751Z,37.20
2018-05-29T15:26:03.245Z,37.80
2018-05-29T15:28:30.649Z,38.50
2018-05-29T15:30:58.105Z,38.80
2018-05-29T15:33:25.769Z,39.60
2018-05-29T15:35:53.431Z,40.00
2018-05-29T15:38:20.857Z,40.00
2018-05-29T15:40:49.118Z,40.00
2018-05-29T15:43:16.547Z,39.90
2018-05-29T15:45:43.984Z,39.90
2018-05-29T15:48:11.430Z,39.80
2018-05-29T15:50:38.882Z,40.00
2018-05-29T15:53:06.321Z,39.90
2018-05-29T15:55:34.720Z,39.10
2018-05-29T15:58:02.250Z,39.10
2018-05-29T16:00:30.569Z,40.70
2018-05-29T16:02:58.067Z,40.60
2018-05-29T16:05:25.506Z,40.50
2018-05-29T16:07:52.941Z,41.00
2018-05-29T16:10:20.389Z,41.00
2018-05-29T16:12:47.828Z,41.30
2018-05-29T16:15:15.269Z,41.10
2018-05-29T16:17:43.482Z,41.20
2018-05-29T16:20:10.968Z,41.10
2018-05-29T16:22:38.408Z,40.80
2018-05-29T16:25:05.847Z,40.10
2018-05-29T16:27:33.277Z,40.00
2018-05-29T16:30:01.519Z,39.60
2018-05-29T16:32:28.945Z,39.50
2018-05-29T16:34:56.384Z,39.00
2018-05-29T16:37:23.832Z,38.80
2018-05-29T16:39:51.304Z,38.30
2018-05-29T16:42:18.737Z,38.30
2018-05-29T16:44:46.985Z,38.30
2018-05-29T16:47:14.439Z,38.30
2018-05-29T16:49:41.884Z,38.70
2018-05-29T16:52:09.340Z,39.10
2018-05-29T16:54:36.783Z,39.00
2018-05-29T16:57:04.221Z,39.10
2018-05-29T16:59:31.686Z,38.70
2018-05-29T17:01:59.128Z,38.30
2018-05-29T17:04:26.576Z,37.80
2018-05-29T17:06:54.049Z,37.60
2018-05-29T17:09:21.504Z,37.60
2018-05-29T17:11:48.970Z,37.70
2018-05-29T17:14:16.516Z,37.90
2018-05-29T17:16:43.963Z,38.00
2018-05-29T17:19:11.409Z,37.50
2018-05-29T17:21:38.845Z,37.50
2018-05-29T17:24:07.069Z,37.90
2018-05-29T17:26:34.528Z,37.80
2018-05-29T17:29:02.005Z,38.10
2018-05-29T17:31:29.445Z,38.10
2018-05-29T17:33:56.989Z,37.80
2018-05-29T17:36:24.417Z,37.70
2018-05-29T17:38:52.612Z,36.70
2018-05-29T17:41:20.101Z,36.60
2018-05-29T17:43:47.764Z,36.40
2018-05-29T17:46:15.394Z,36.30
2018-05-29T17:48:42.840Z,36.20
2018-05-29T17:51:10.312Z,35.90
2018-05-29T17:53:37.782Z,35.50
2018-05-29T17:56:06.144Z,35.00
2018-05-29T17:58:33.608Z,34.30
2018-05-29T18:01:01.060Z,33.60
2018-05-29T18:03:28.501Z,32.90
2018-05-29T18:05:55.977Z,32.30
2018-05-29T18:08:23.573Z,31.80
2018-05-29T18:10:51.031Z,31.50
2018-05-29T18:13:18.557Z,31.40
2018-05-29T18:15:46.005Z,31.20
2018-05-29T18:18:13.442Z,31.10
2018-05-29T18:20:40.892Z,31.00
2018-05-29T18:23:08.432Z,30.80
2018-05-29T18:25:36.031Z,30.60
2018-05-29T18:28:03.676Z,30.50
2018-05-29T18:30:31.131Z,30.40
2018-05-29T18:32:58.634Z,30.30
2018-05-29T18:35:26.101Z,30.10
2018-05-29T18:37:53.561Z,30.00
2018-05-29T18:40:21.092Z,30.00
2018-05-29T18:42:48.521Z,29.90
2018-05-29T18:45:16.035Z,29.80
2018-05-29T18:47:43.537Z,29.70
2018-05-29T18:50:11.045Z,29.60
2018-05-29T18:52:38.519Z,29.50
2018-05-29T18:55:06.803Z,29.20
2018-05-29T18:57:34.274Z,29.10
2018-05-29T19:00:01.738Z,29.10
2018-05-29T19:02:29.210Z,29.00
2018-05-29T19:04:56.668Z,28.90
2018-05-29T19:07:24.154Z,28.80
2018-05-29T19:09:51.668Z,28.70
2018-05-29T19:12:19.849Z,28.60
2018-05-29T19:14:47.327Z,28.50
2018-05-29T19:17:14.849Z,28.50
2018-05-29T19:19:43.078Z,28.30
2018-05-29T19:22:11.069Z,28.20
2018-05-29T19:24:38.553Z,28.20
2018-05-29T19:27:06.031Z,28.10
2018-05-29T19:29:33.473Z,28.00
2018-05-29T19:32:01.405Z,27.90
2018-05-29T19:34:28.937Z,27.90
2018-05-29T19:36:56.413Z,27.80
2018-05-29T19:39:23.910Z,27.70
2018-05-29T19:41:51.370Z,27.70
2018-05-29T19:44:18.849Z,27.60
2018-05-29T19:46:46.310Z,27.40
2018-05-29T19:49:13.753Z,27.40
2018-05-29T19:51:41.197Z,27.30
2018-05-29T19:54:08.665Z,27.20
2018-05-29T19:56:36.361Z,27.20
2018-05-29T19:59:03.853Z,27.20
2018-05-29T20:01:32.064Z,27.00
2018-05-29T20:03:59.486Z,26.90
2018-05-29T20:06:26.912Z,26.90
2018-05-29T20:08:54.367Z,27.00
2018-05-29T20:11:21.826Z,26.80
2018-05-29T20:13:49.328Z,26.80
2018-05-29T20:16:16.833Z,26.70
2018-05-29T20:18:44.314Z,26.60
2018-05-29T20:21:11.785Z,26.50
2018-05-29T20:23:40.020Z,26.40
2018-05-29T20:26:07.513Z,26.30
2018-05-29T20:28:34.987Z,26.30
2018-05-29T20:31:03.580Z,26.20
2018-05-29T20:33:31.051Z,26.10
2018-05-29T20:35:58.577Z,26.00
2018-05-29T20:38:26.132Z,26.00
2018-05-29T20:40:54.776Z,25.90
2018-05-29T20:43:23.145Z,25.70
2018-05-29T20:45:50.713Z,25.70
2018-05-29T20:48:18.760Z,25.70
2018-05-29T20:50:48.194Z,25.60
2018-05-29T20:53:16.285Z,25.50
2018-05-29T20:55:44.178Z,25.50
2018-05-29T20:58:12.256Z,25.40
2018-05-29T21:00:39.815Z,25.40
2018-05-29T21:03:07.313Z,25.40
2018-05-29T21:05:34.763Z,25.40
2018-05-29T21:08:02.223Z,25.30
2018-05-29T21:10:29.706Z,25.20
2018-05-29T21:12:57.967Z,25.10
2018-05-29T21:15:25.496Z,25.00
2018-05-29T21:17:53.692Z,25.00
2018-05-29T21:20:21.194Z,24.90
2018-05-29T21:22:48.721Z,24.90
2018-05-29T21:25:16.346Z,24.80
2018-05-29T21:27:44.043Z,24.80
2018-05-29T21:30:11.805Z,24.70
2018-05-29T21:32:40.010Z,24.70
2018-05-29T21:35:08.295Z,24.70
2018-05-29T21:37:36.515Z,24.70
2018-05-29T21:40:03.988Z,24.60
2018-05-29T21:42:31.454Z,24.60
2018-05-29T21:44:58.908Z,24.50
2018-05-29T21:47:27.237Z,24.50
2018-05-29T21:49:54.660Z,24.40
2018-05-29T21:52:22.153Z,24.40
2018-05-29T21:54:49.573Z,24.40
2018-05-29T21:57:17.029Z,24.40
2018-05-29T21:59:45.260Z,24.30
2018-05-29T22:02:12.711Z,24.20
2018-05-29T22:04:40.136Z,24.20
2018-05-29T22:07:07.572Z,24.20
2018-05-29T22:09:35.005Z,24.10
2018-05-29T22:12:02.553Z,24.00
2018-05-29T22:14:29.977Z,24.00
2018-05-29T22:16:57.427Z,23.90
2018-05-29T22:19:24.845Z,23.90
2018-05-29T22:21:53.079Z,23.80
2018-05-29T22:24:20.509Z,23.80
2018-05-29T22:26:47.952Z,23.80
2018-05-29T22:29:15.384Z,23.80
2018-05-29T22:31:43.581Z,23.80
2018-05-29T22:34:11.015Z,23.80
2018-05-29T22:36:39.234Z,23.80
2018-05-29T22:39:06.668Z,23.70
2018-05-29T22:41:34.930Z,23.70
2018-05-29T22:44:03.117Z,23.60
2018-05-29T22:46:30.548Z,23.50
2018-05-29T22:48:58.764Z,23.60
2018-05-29T22:51:26.241Z,23.50
2018-05-29T22:53:53.675Z,23.60
2018-05-29T22:56:21.139Z,23.50
2018-05-29T22:58:48.577Z,23.50
2018-05-29T23:01:16.016Z,23.50
2018-05-29T23:03:43.467Z,23.40
2018-05-29T23:06:10.963Z,23.40
2018-05-29T23:08:38.388Z,23.40
2018-05-29T23:11:05.816Z,23.30
2018-05-29T23:13:33.349Z,23.40
2018-05-29T23:16:00.792Z,23.30
2018-05-29T23:18:28.283Z,23.30
2018-05-29T23:20:55.696Z,23.30
2018-05-29T23:23:23.490Z,23.20
2018-05-29T23:25:50.900Z,23.10
2018-05-29T23:28:18.344Z,23.10
2018-05-29T23:30:45.849Z,23.20
2018-05-29T23:33:13.304Z,23.20
2018-05-29T23:35:40.750Z,23.10
2018-05-29T23:38:08.218Z,23.10
2018-05-29T23:40:35.644Z,23.00
2018-05-29T23:43:03.080Z,23.10
2018-05-29T23:45:31.313Z,23.00
2018-05-29T23:47:58.757Z,22.90
2018-05-29T23:50:26.200Z,23.00
2018-05-29T23:52:53.650Z,23.00
2018-05-29T23:55:21.077Z,23.00
2018-05-29T23:57:49.305Z,23.00
